Time;durP1;ratioP1;P1;durP2;ratioP2;P2;SDS_P1;SDS_P2;PMS_P1;PMS_P2;Temp;Humidity;BMP_temperature;BMP_pressure;BME280_temperature;BME280_humidity;BME280_pressure;Samples;Min_cycle;Max_cycle;Signal;HPM_P1;HPM_P2
2023/04/25 03:02:13;;;;;;;3.00;0.20;;;10.20;82.50;;;;;;5441033;23;93547;-78
2023/04/25 03:04:39;;;;;;;3.40;0.50;;;10.20;82.50;;;;;;4905079;28;91436;-80
2023/04/25 03:07:05;;;;;;;3.03;0.30;;;10.20;82.30;;;;;;4904253;28;93176;-80
2023/04/25 03:09:31;;;;;;;3.28;0.30;;;10.20;82.00;;;;;;4904124;28;92910;-77
2023/04/25 03:11:56;;;;;;;3.03;0.30;;;10.30;81.90;;;;;;4904448;28;92917;-77
2023/04/25 03:14:22;;;;;;;4.10;0.43;;;10.30;82.00;;;;;;4904742;28;92112;-79
2023/04/25 03:16:48;;;;;;;3.22;0.40;;;10.30;82.20;;;;;;4904229;28;91995;-79
2023/04/25 03:19:15;;;;;;;3.53;0.52;;;10.30;82.50;;;;;;4904045;28;92726;-80
2023/04/25 03:21:41;;;;;;;3.75;0.45;;;10.30;82.70;;;;;;4904343;28;91936;-83
2023/04/25 03:24:07;;;;;;;3.60;0.50;;;10.30;82.80;;;;;;4904952;28;92208;-81
2023/04/25 03:26:32;;;;;;;5.20;0.60;;;10.30;83.00;;;;;;4904138;28;93152;-79
2023/04/25 03:28:58;;;;;;;6.22;0.68;;;10.30;82.60;;;;;;4904349;28;93066;-79
2023/04/25 03:31:24;;;;;;;6.47;0.88;;;10.20;82.80;;;;;;4904252;28;91909;-79
2023/04/25 03:33:50;;;;;;;3.33;0.60;;;10.20;82.90;;;;;;4904656;28;92144;-79
2023/04/25 03:36:16;;;;;;;4.95;0.80;;;10.20;83.10;;;;;;4903694;28;93641;-80
2023/04/25 03:38:41;;;;;;;2.25;0.55;;;10.20;83.90;;;;;;4903803;28;93863;-77
2023/04/25 03:41:07;;;;;;;4.25;0.52;;;10.20;84.40;;;;;;4904189;28;92022;-79
2023/04/25 03:43:33;;;;;;;3.22;0.80;;;10.20;84.20;;;;;;4904440;28;92186;-78
2023/04/25 03:45:59;;;;;;;4.57;0.80;;;10.10;84.20;;;;;;4886634;28;94881;-78
2023/04/25 03:48:26;;;;;;;4.75;0.68;;;10.10;84.30;;;;;;4886172;28;94988;-77
2023/04/25 03:50:52;;;;;;;4.30;0.88;;;10.10;84.60;;;;;;4886656;28;91836;-79
2023/04/25 03:53:18;;;;;;;3.92;0.70;;;10.10;84.60;;;;;;4904717;28;91341;-80
2023/04/25 03:55:44;;;;;;;3.28;0.90;;;10.10;85.30;;;;;;4903406;28;92822;-80
2023/04/25 03:58:10;;;;;;;4.72;1.00;;;10.10;85.50;;;;;;4903479;28;93411;-80
2023/04/25 04:00:35;;;;;;;4.63;0.90;;;10.10;86.10;;;;;;4903574;28;92886;-79
2023/04/25 04:03:01;;;;;;;4.10;0.90;;;10.10;86.10;;;;;;4874451;28;94742;-79
2023/04/25 04:05:28;;;;;;;5.03;0.98;;;10.10;86.20;;;;;;4889648;28;95538;-79
2023/04/25 04:07:54;;;;;;;9.73;0.80;;;10.10;85.30;;;;;;4892684;28;92531;-79
2023/04/25 04:10:20;;;;;;;3.42;0.75;;;10.10;86.30;;;;;;4895419;28;92207;-78
2023/04/25 04:12:46;;;;;;;5.63;0.68;;;10.10;86.10;;;;;;4899243;28;92852;-78
2023/04/25 04:15:11;;;;;;;3.80;0.80;;;10.10;86.20;;;;;;4905935;28;93710;-78
2023/04/25 04:17:37;;;;;;;4.35;1.05;;;10.00;86.00;;;;;;4903558;28;93798;-78
2023/04/25 04:20:03;;;;;;;4.88;0.98;;;10.00;87.00;;;;;;4896657;28;92537;-79
2023/04/25 04:22:29;;;;;;;5.47;0.98;;;9.90;87.70;;;;;;4897306;28;92415;-82
2023/04/25 04:24:56;;;;;;;5.50;1.40;;;9.80;88.20;;;;;;4898393;28;94891;-81
2023/04/25 04:27:22;;;;;;;4.82;0.98;;;9.80;89.00;;;;;;4901929;28;93188;-81
2023/04/25 04:29:48;;;;;;;3.42;0.98;;;9.70;89.20;;;;;;4895113;28;94429;-77
2023/04/25 04:32:14;;;;;;;4.07;1.50;;;9.70;89.70;;;;;;4899474;28;92393;-76
2023/04/25 04:34:41;;;;;;;3.05;1.00;;;9.70;89.90;;;;;;4898476;28;92714;-78
2023/04/25 04:37:06;;;;;;;5.28;1.30;;;9.60;90.20;;;;;;4886798;28;93319;-79
2023/04/25 04:39:36;;;;;;;3.85;1.30;;;9.50;90.50;;;;;;4900048;28;92574;-80
2023/04/25 04:42:03;;;;;;;5.75;1.30;;;9.50;90.70;;;;;;4897236;28;91602;-81
2023/04/25 04:44:29;;;;;;;5.43;1.70;;;9.50;91.10;;;;;;4880177;28;95431;-78
2023/04/25 04:46:54;;;;;;;3.65;1.20;;;9.50;91.50;;;;;;4894822;28;93613;-80
2023/04/25 04:49:21;;;;;;;6.15;1.52;;;9.50;91.40;;;;;;4890881;28;95016;-78
2023/04/25 04:51:47;;;;;;;5.60;1.33;;;9.60;91.30;;;;;;4884406;28;93958;-80
2023/04/25 04:54:13;;;;;;;6.30;1.60;;;9.80;91.40;;;;;;4875509;28;95379;-79
2023/04/25 04:56:39;;;;;;;4.28;1.70;;;10.00;91.30;;;;;;4885459;28;92518;-82
2023/04/25 04:59:04;;;;;;;4.90;1.77;;;10.20;90.80;;;;;;4894000;28;93124;-80
2023/04/25 05:01:30;;;;;;;5.45;1.10;;;10.30;90.80;;;;;;4897030;28;93024;-80
2023/04/25 05:04:00;;;;;;;4.35;1.35;;;10.40;91.10;;;;;;4893390;28;93167;-80
2023/04/25 05:06:28;;;;;;;4.15;1.58;;;10.50;90.50;;;;;;4891406;28;92390;-80
2023/04/25 05:08:54;;;;;;;3.10;1.30;;;10.70;90.60;;;;;;4896348;28;92511;-80
2023/04/25 05:11:20;;;;;;;6.95;1.50;;;11.40;89.50;;;;;;4885095;28;93753;-82
2023/04/25 05:13:46;;;;;;;5.53;1.95;;;11.70;86.40;;;;;;4879664;28;94820;-80
2023/04/25 05:16:12;;;;;;;4.68;2.10;;;11.60;86.30;;;;;;4892815;28;94359;-81
2023/04/25 05:18:39;;;;;;;7.82;1.52;;;11.50;86.90;;;;;;4880540;28;93133;-81
2023/04/25 05:21:05;;;;;;;8.60;1.70;;;11.40;86.90;;;;;;4895042;28;92459;-80
2023/04/25 05:23:32;;;;;;;5.22;1.27;;;11.40;87.40;;;;;;4888857;28;94027;-80
2023/04/25 05:25:58;;;;;;;12.60;1.60;;;11.30;87.70;;;;;;4881755;28;94172;-80
2023/04/25 05:28:23;;;;;;;6.10;1.70;;;11.30;86.90;;;;;;4897139;28;92939;-80
2023/04/25 05:30:49;;;;;;;3.92;1.60;;;11.20;87.20;;;;;;4898260;28;92000;-80
2023/04/25 05:33:15;;;;;;;3.47;1.42;;;11.10;87.70;;;;;;4895871;28;92658;-80
2023/04/25 05:35:41;;;;;;;4.05;1.33;;;11.00;87.70;;;;;;4886392;28;92777;-81
2023/04/25 05:38:07;;;;;;;8.50;1.70;;;11.00;88.20;;;;;;4897564;28;93648;-81
2023/04/25 05:40:32;;;;;;;4.45;1.10;;;11.00;87.90;;;;;;4901010;28;92542;-79
2023/04/25 05:42:58;;;;;;;5.07;1.55;;;11.00;85.70;;;;;;4897167;28;93687;-80
2023/04/25 05:45:24;;;;;;;4.60;0.80;;;11.10;86.40;;;;;;4896979;28;92927;-80
2023/04/25 05:47:49;;;;;;;7.70;0.93;;;11.20;84.50;;;;;;4893987;28;92861;-81
2023/04/25 05:50:15;;;;;;;8.48;0.95;;;11.40;84.40;;;;;;4898878;28;92424;-80
2023/04/25 05:52:41;;;;;;;6.40;0.93;;;11.40;83.30;;;;;;4891927;28;93310;-80
2023/04/25 05:55:07;;;;;;;4.45;1.00;;;11.60;82.40;;;;;;4902609;28;95446;-79
2023/04/25 05:57:33;;;;;;;4.78;0.77;;;11.80;82.20;;;;;;4897126;28;92443;-80
2023/04/25 05:59:58;;;;;;;4.90;0.75;;;12.10;80.50;;;;;;4888209;28;92466;-79
2023/04/25 06:02:24;;;;;;;3.90;0.90;;;12.40;77.80;;;;;;4884235;28;94159;-81
2023/04/25 06:04:51;;;;;;;3.42;1.00;;;12.90;77.50;;;;;;4891916;28;94230;-84
2023/04/25 06:07:17;;;;;;;4.03;1.02;;;13.20;77.30;;;;;;4883716;28;93560;-82
2023/04/25 06:09:43;;;;;;;3.70;1.00;;;13.40;77.00;;;;;;4893596;28;92393;-83
2023/04/25 06:12:09;;;;;;;3.17;1.15;;;13.80;76.70;;;;;;4876955;28;93631;-80
2023/04/25 06:14:35;;;;;;;6.80;1.10;;;14.10;75.10;;;;;;4875206;28;93913;-82
2023/04/25 06:17:08;;;;;;;4.00;1.25;;;15.30;72.90;;;;;;4885953;28;94303;-81
2023/04/25 06:19:34;;;;;;;5.05;0.95;;;17.00;66.80;;;;;;4880641;28;92551;-83
2023/04/25 06:22:00;;;;;;;3.35;1.00;;;18.30;62.50;;;;;;4897031;28;93265;-81
2023/04/25 06:24:25;;;;;;;2.90;0.50;;;19.70;56.40;;;;;;4891880;28;92693;-82
2023/04/25 06:26:52;;;;;;;2.22;0.60;;;20.20;53.20;;;;;;4899497;28;93566;-81
2023/04/25 06:29:18;;;;;;;2.45;0.60;;;20.60;50.00;;;;;;4896076;28;92680;-81
2023/04/25 06:31:44;;;;;;;3.95;0.65;;;21.50;49.20;;;;;;4896178;28;92456;-82
2023/04/25 06:34:09;;;;;;;2.95;0.50;;;22.60;46.60;;;;;;4899422;28;93545;-82
2023/04/25 06:36:35;;;;;;;3.50;0.80;;;23.40;46.00;;;;;;4893007;28;92629;-82
2023/04/25 06:39:01;;;;;;;2.38;0.63;;;22.20;45.50;;;;;;4890413;28;92516;-80
2023/04/25 06:41:26;;;;;;;2.97;0.55;;;22.00;46.00;;;;;;4894798;28;93093;-81
2023/04/25 06:43:52;;;;;;;2.58;0.60;;;21.60;47.70;;;;;;4899986;28;93230;-82
2023/04/25 06:46:18;;;;;;;2.90;0.70;;;20.90;48.30;;;;;;4903122;28;92362;-77
2023/04/25 06:48:43;;;;;;;3.30;0.90;;;19.80;50.70;;;;;;4898512;28;92482;-79
2023/04/25 06:51:10;;;;;;;4.45;2.03;;;19.10;52.50;;;;;;4897913;28;94923;-81
2023/04/25 06:53:36;;;;;;;4.63;1.35;;;18.90;54.40;;;;;;4895000;28;93686;-81
2023/04/25 06:56:02;;;;;;;7.88;1.27;;;20.00;53.50;;;;;;4908276;28;92577;-79
2023/04/25 06:58:28;;;;;;;5.95;1.77;;;21.50;49.60;;;;;;4901279;28;92670;-79
2023/04/25 07:00:54;;;;;;;3.65;0.93;;;22.20;48.00;;;;;;4909299;28;93862;-80
2023/04/25 07:03:20;;;;;;;3.70;0.82;;;22.60;47.20;;;;;;4891385;28;93412;-79
2023/04/25 07:05:46;;;;;;;3.95;0.77;;;22.50;45.00;;;;;;4900818;28;92686;-79
2023/04/25 07:08:12;;;;;;;2.00;0.60;;;21.70;45.90;;;;;;4903184;28;93295;-80
2023/04/25 07:10:37;;;;;;;2.50;0.73;;;20.90;45.80;;;;;;4886195;28;93609;-79
2023/04/25 07:13:03;;;;;;;2.22;0.43;;;20.20;47.40;;;;;;4899041;28;92336;-80
2023/04/25 07:15:29;;;;;;;3.47;0.52;;;19.30;49.00;;;;;;4894311;28;94003;-79
2023/04/25 07:17:55;;;;;;;2.90;0.40;;;18.70;50.80;;;;;;4903252;28;92802;-79
2023/04/25 07:20:20;;;;;;;3.47;0.50;;;18.50;52.00;;;;;;4897118;28;93162;-77
2023/04/25 07:22:46;;;;;;;1.80;0.43;;;18.80;50.10;;;;;;4894567;28;93412;-77
2023/04/25 07:25:12;;;;;;;3.92;0.38;;;18.90;51.00;;;;;;4893425;28;92981;-77
2023/04/25 07:27:38;;;;;;;2.30;0.40;;;18.70;51.20;;;;;;4895444;28;92462;-78
2023/04/25 07:30:05;;;;;;;5.10;0.90;;;18.30;52.70;;;;;;4896737;28;92994;-77
2023/04/25 07:32:30;;;;;;;2.63;0.35;;;17.90;52.90;;;;;;4897139;28;93157;-78
2023/04/25 07:34:56;;;;;;;2.72;0.45;;;17.40;53.60;;;;;;4896088;28;92674;-77
2023/04/25 07:37:22;;;;;;;5.00;0.28;;;16.80;54.00;;;;;;4896310;28;92630;-79
2023/04/25 07:39:48;;;;;;;4.70;0.30;;;16.20;55.90;;;;;;4897052;28;93462;-77
2023/04/25 07:42:14;;;;;;;1.98;0.40;;;15.60;58.20;;;;;;4896684;28;93187;-76
2023/04/25 07:44:43;;;;;;;4.15;0.22;;;15.00;58.30;;;;;;4895183;28;92438;-77
2023/04/25 07:47:10;;;;;;;4.05;0.30;;;14.60;60.90;;;;;;4897237;28;92156;-77
2023/04/25 07:49:36;;;;;;;4.53;0.32;;;14.40;62.60;;;;;;4897782;28;92862;-78
2023/04/25 07:52:03;;;;;;;1.88;0.30;;;14.10;63.60;;;;;;4897455;28;94022;-78
2023/04/25 07:54:29;;;;;;;3.60;0.43;;;13.70;64.00;;;;;;4897181;28;92403;-77
2023/04/25 07:56:55;;;;;;;3.38;0.40;;;13.60;65.90;;;;;;4898482;28;91766;-77
2023/04/25 07:59:21;;;;;;;4.40;0.38;;;13.50;67.20;;;;;;4897645;28;93466;-77
2023/04/25 08:01:47;;;;;;;2.95;0.20;;;13.30;69.50;;;;;;4888344;28;92801;-77
2023/04/25 08:04:13;;;;;;;2.63;0.20;;;13.10;65.80;;;;;;4896497;28;93418;-76
2023/04/25 08:06:38;;;;;;;1.42;0.20;;;12.80;69.00;;;;;;4894315;28;92653;-76
2023/04/25 08:09:05;;;;;;;2.78;0.30;;;12.60;68.10;;;;;;4896821;28;93547;-78
2023/04/25 08:11:30;;;;;;;4.15;0.52;;;12.60;69.60;;;;;;4893518;28;95429;-76
2023/04/25 08:13:56;;;;;;;4.78;0.28;;;12.60;69.40;;;;;;4896608;28;92542;-78
2023/04/25 08:16:22;;;;;;;3.50;0.40;;;12.60;70.40;;;;;;4898034;28;92525;-77
2023/04/25 08:18:47;;;;;;;2.33;0.20;;;12.60;70.50;;;;;;4892199;28;93614;-77
2023/04/25 08:21:13;;;;;;;4.38;0.20;;;12.60;70.10;;;;;;4896598;28;93322;-78
2023/04/25 08:23:39;;;;;;;3.17;0.35;;;12.50;70.60;;;;;;4896079;28;93925;-77
2023/04/25 08:26:05;;;;;;;2.45;0.30;;;12.50;71.90;;;;;;4895943;28;92505;-78
2023/04/25 08:28:31;;;;;;;3.50;0.30;;;12.50;72.60;;;;;;4902553;28;95142;-77
2023/04/25 08:30:57;;;;;;;3.70;0.30;;;12.40;73.30;;;;;;4893762;28;94539;-78
2023/04/25 08:33:23;;;;;;;1.80;0.30;;;12.30;74.10;;;;;;4890883;28;92472;-79
2023/04/25 08:35:48;;;;;;;5.65;0.50;;;12.30;72.50;;;;;;4892571;28;92454;-77
2023/04/25 08:38:14;;;;;;;3.22;0.28;;;12.30;74.70;;;;;;4890310;28;93130;-77
2023/04/25 08:40:41;;;;;;;1.60;0.20;;;12.20;72.60;;;;;;4896342;28;92381;-77
2023/04/25 08:43:11;;;;;;;3.35;0.30;;;12.00;73.10;;;;;;4896970;28;92665;-78
2023/04/25 08:45:42;;;;;;;4.53;0.30;;;11.90;74.10;;;;;;4897557;28;91657;-77
2023/04/25 08:48:15;;;;;;;2.15;0.40;;;12.00;73.80;;;;;;4896557;28;93762;-78
2023/04/25 08:50:52;;;;;;;2.17;0.40;;;12.00;73.60;;;;;;4893849;28;93829;-77
2023/04/25 08:53:30;;;;;;;3.97;0.30;;;12.10;73.50;;;;;;4869915;28;93332;-78
2023/04/25 08:55:57;;;;;;;4.05;0.20;;;12.00;75.20;;;;;;4900719;28;92425;-77
2023/04/25 08:58:23;;;;;;;2.42;0.10;;;12.00;74.70;;;;;;4900505;28;94353;-77
2023/04/25 09:00:51;;;;;;;2.35;0.20;;;11.90;75.10;;;;;;4897624;28;92515;-78
2023/04/25 09:03:19;;;;;;;2.00;0.20;;;11.80;75.10;;;;;;4873694;28;94263;-78
2023/04/25 09:05:45;;;;;;;3.13;0.20;;;11.80;75.10;;;;;;4895106;28;93015;-79
2023/04/25 09:08:11;;;;;;;2.75;0.22;;;11.60;76.20;;;;;;4898413;28;93740;-79
2023/04/25 09:10:38;;;;;;;3.67;0.40;;;11.60;75.20;;;;;;4893433;28;92533;-79
2023/04/25 09:13:12;;;;;;;2.72;0.70;;;11.50;76.20;;;;;;4902211;28;92141;-78
2023/04/25 09:15:58;;;;;;;6.50;0.40;;;11.70;76.50;;;;;;4899611;28;92953;-79
2023/04/25 09:18:29;;;;;;;3.80;0.43;;;11.90;76.90;;;;;;4898078;28;94729;-80
2023/04/25 09:21:10;;;;;;;2.92;0.30;;;12.10;74.60;;;;;;4903396;28;93825;-77
2023/04/25 09:23:46;;;;;;;3.15;0.40;;;12.30;77.10;;;;;;4900051;28;92500;-78
2023/04/25 09:26:18;;;;;;;3.45;0.30;;;12.60;76.00;;;;;;4872456;28;94086;-80
2023/04/25 09:28:45;;;;;;;1.55;0.20;;;12.80;73.00;;;;;;4893443;28;93559;-80
2023/04/25 09:31:11;;;;;;;2.67;0.22;;;13.00;72.60;;;;;;4886034;28;92882;-78
2023/04/25 09:33:37;;;;;;;1.48;0.22;;;13.10;72.90;;;;;;4882125;28;92497;-77
2023/04/25 09:36:08;;;;;;;2.72;0.45;;;13.20;70.70;;;;;;4887738;28;92077;-78
2023/04/25 09:38:45;;;;;;;1.33;0.32;;;13.30;70.40;;;;;;4891210;28;94083;-80
2023/04/25 09:41:11;;;;;;;3.58;1.17;;;13.40;68.90;;;;;;4898826;28;92627;-79
2023/04/25 09:43:38;;;;;;;1.67;0.40;;;13.30;70.80;;;;;;4891821;28;94310;-81
2023/04/25 09:46:09;;;;;;;1.15;0.15;;;13.30;70.10;;;;;;4880257;28;93546;-79
2023/04/25 09:48:35;;;;;;;1.05;0.20;;;13.70;70.40;;;;;;4878680;28;94495;-80
2023/04/25 09:51:09;;;;;;;3.08;0.10;;;14.10;68.00;;;;;;4880512;28;93957;-79
2023/04/25 09:53:40;;;;;;;1.83;0.13;;;14.50;68.80;;;;;;4888919;28;92821;-81
2023/04/25 09:56:08;;;;;;;1.20;0.10;;;14.70;68.20;;;;;;4903487;28;92486;-84
2023/04/25 09:58:36;;;;;;;2.65;0.45;;;15.10;67.30;;;;;;4893834;28;94137;-80
2023/04/25 10:01:04;;;;;;;1.75;0.30;;;15.50;64.90;;;;;;4880162;28;93357;-82
2023/04/25 10:03:36;;;;;;;2.15;0.35;;;15.90;65.60;;;;;;4891411;28;94124;-82
2023/04/25 10:06:05;;;;;;;1.25;0.30;;;16.10;63.50;;;;;;4894887;28;92578;-79
2023/04/25 10:08:38;;;;;;;1.38;0.20;;;16.20;62.80;;;;;;4894825;28;96743;-76
2023/04/25 10:11:05;;;;;;;3.15;0.20;;;16.00;61.10;;;;;;4886155;28;93958;-76
2023/04/25 10:13:32;;;;;;;1.85;0.20;;;15.80;63.20;;;;;;4886240;28;92258;-80
2023/04/25 10:16:00;;;;;;;2.15;0.30;;;15.50;64.20;;;;;;4890540;28;93738;-77
2023/04/25 10:18:27;;;;;;;1.02;0.22;;;15.20;64.70;;;;;;4890459;28;93316;-80
2023/04/25 10:20:59;;;;;;;1.60;0.20;;;15.00;64.70;;;;;;4890205;28;93928;-78
2023/04/25 10:23:25;;;;;;;2.10;0.20;;;14.60;66.50;;;;;;4891777;28;92355;-77
2023/04/25 10:25:52;;;;;;;3.08;0.50;;;14.20;65.10;;;;;;4874691;28;91786;-78
2023/04/25 10:28:18;;;;;;;3.58;0.50;;;13.90;67.90;;;;;;4888713;28;93162;-79
2023/04/25 10:31:02;;;;;;;1.17;0.20;;;13.70;68.80;;;;;;4882613;28;93217;-80
2023/04/25 10:33:39;;;;;;;1.90;0.30;;;13.70;68.10;;;;;;4881311;28;93414;-77
2023/04/25 10:36:22;;;;;;;1.75;0.20;;;13.60;67.80;;;;;;4884910;28;93269;-77
2023/04/25 10:38:50;;;;;;;3.25;0.20;;;13.60;68.80;;;;;;4878166;28;94557;-78
2023/04/25 10:41:18;;;;;;;1.77;0.20;;;13.40;69.00;;;;;;4874885;28;93827;-80
2023/04/25 10:43:46;;;;;;;1.20;0.10;;;13.20;70.90;;;;;;4870856;28;94187;-79
2023/04/25 10:46:31;;;;;;;1.67;0.10;;;12.80;72.70;;;;;;4884338;28;93439;-78
2023/04/25 10:48:59;;;;;;;0.98;0.10;;;12.50;75.30;;;;;;4892393;28;93646;-79
2023/04/25 10:51:26;;;;;;;1.10;0.20;;;12.50;75.20;;;;;;4887067;28;93499;-78
2023/04/25 10:53:55;;;;;;;0.70;0.10;;;12.80;76.70;;;;;;4888520;28;92650;-80
2023/04/25 10:56:22;;;;;;;1.70;0.10;;;13.10;75.80;;;;;;4896678;28;92579;-77
2023/04/25 10:58:48;;;;;;;0.77;0.10;;;13.30;75.60;;;;;;4877433;28;94477;-77
2023/04/25 11:01:20;;;;;;;2.33;0.10;;;13.70;74.00;;;;;;4891276;28;94312;-77
2023/04/25 11:03:50;;;;;;;0.63;0.20;;;14.20;74.10;;;;;;4890964;28;93110;-77
2023/04/25 11:06:49;;;;;;;3.22;0.20;;;15.20;70.20;;;;;;4896376;28;92431;-77
2023/04/25 11:09:15;;;;;;;0.77;0.10;;;16.00;68.60;;;;;;4864584;28;93667;-78
2023/04/25 11:11:41;;;;;;;0.55;0.20;;;16.40;64.70;;;;;;4875495;28;95111;-79
2023/04/25 11:14:07;;;;;;;0.95;0.20;;;16.50;64.00;;;;;;4896402;28;92553;-77
2023/04/25 11:16:32;;;;;;;2.17;0.35;;;16.40;63.40;;;;;;4896604;28;91861;-77
2023/04/25 11:18:58;;;;;;;2.17;0.20;;;16.10;63.30;;;;;;4895762;28;93025;-77
2023/04/25 11:21:28;;;;;;;2.28;0.15;;;15.70;63.30;;;;;;4894959;28;93904;-79
2023/04/25 11:23:56;;;;;;;2.58;0.10;;;15.20;65.20;;;;;;4895212;28;93573;-79
2023/04/25 11:26:22;;;;;;;2.90;0.30;;;14.80;66.50;;;;;;4892498;28;92599;-78
2023/04/25 11:28:49;;;;;;;1.50;0.40;;;14.40;71.10;;;;;;4894085;28;93720;-80
2023/04/25 11:31:15;;;;;;;1.45;0.22;;;13.90;72.50;;;;;;4886572;28;92789;-77
2023/04/25 11:33:42;;;;;;;1.50;0.20;;;13.70;73.10;;;;;;4878731;28;92602;-79
2023/04/25 11:36:08;;;;;;;0.90;0.20;;;13.60;73.80;;;;;;4895009;28;92484;-78
2023/04/25 11:38:34;;;;;;;1.30;0.30;;;13.70;74.70;;;;;;4895750;28;92670;-80
2023/04/25 11:41:00;;;;;;;2.40;0.30;;;13.80;74.50;;;;;;4896774;28;92874;-80
2023/04/25 11:43:26;;;;;;;1.75;0.30;;;13.90;75.00;;;;;;4893714;28;92758;-78
2023/04/25 11:45:52;;;;;;;2.00;0.40;;;14.20;74.30;;;;;;4895425;28;92349;-80
2023/04/25 11:48:20;;;;;;;3.10;0.57;;;14.70;74.60;;;;;;4895222;28;94482;-81
2023/04/25 11:50:46;;;;;;;2.35;0.90;;;15.00;70.40;;;;;;4895392;28;94013;-80
2023/04/25 11:53:11;;;;;;;2.33;0.25;;;15.20;71.50;;;;;;4893974;28;92483;-79
2023/04/25 11:55:37;;;;;;;2.17;0.50;;;15.40;70.80;;;;;;4896183;28;93480;-80
2023/04/25 11:58:04;;;;;;;1.60;0.60;;;15.60;70.60;;;;;;4895812;28;94153;-81
2023/04/25 12:00:31;;;;;;;1.85;0.20;;;15.50;68.90;;;;;;4880473;28;93690;-80
2023/04/25 12:02:58;;;;;;;1.70;0.20;;;15.40;68.10;;;;;;4893786;28;92223;-81
2023/04/25 12:05:26;;;;;;;1.48;0.20;;;15.30;69.40;;;;;;4895914;28;91476;-78
2023/04/25 12:07:51;;;;;;;2.10;0.30;;;15.10;68.10;;;;;;4895702;28;93382;-79
2023/04/25 12:10:18;;;;;;;0.65;0.10;;;15.00;67.10;;;;;;4882751;28;94728;-78
2023/04/25 12:12:46;;;;;;;0.60;0.10;;;14.80;69.90;;;;;;4893362;28;93080;-80
2023/04/25 12:15:19;;;;;;;0.52;0.10;;;14.60;69.40;;;;;;4895734;28;92345;-78
2023/04/25 12:17:50;;;;;;;1.63;0.10;;;14.40;68.20;;;;;;4894771;28;94095;-80
2023/04/25 12:20:19;;;;;;;1.23;0.10;;;14.30;68.80;;;;;;4895387;28;92943;-79
2023/04/25 12:22:47;;;;;;;0.73;0.10;;;14.10;68.90;;;;;;4894948;28;92159;-78
2023/04/25 12:25:33;;;;;;;1.58;0.00;;;13.90;68.60;;;;;;4895849;28;92171;-78
2023/04/25 12:28:27;;;;;;;0.50;0.10;;;13.50;67.70;;;;;;4882662;28;92733;-78
2023/04/25 12:30:56;;;;;;;0.38;0.00;;;13.80;67.70;;;;;;4899048;28;92237;-77
2023/04/25 12:33:22;;;;;;;0.35;0.05;;;14.10;65.00;;;;;;4906845;28;92532;-76
2023/04/25 12:35:48;;;;;;;1.65;0.03;;;14.20;64.50;;;;;;4895707;28;92427;-78
2023/04/25 12:38:33;;;;;;;1.48;0.10;;;14.30;64.50;;;;;;4892383;28;94453;-77
2023/04/25 12:40:59;;;;;;;0.25;0.00;;;13.90;67.50;;;;;;4898130;28;94427;-77
2023/04/25 12:43:25;;;;;;;0.70;0.00;;;13.40;67.40;;;;;;4896593;28;92503;-78
2023/04/25 12:45:52;;;;;;;3.28;0.20;;;12.90;70.20;;;;;;4900922;28;92482;-79
2023/04/25 12:48:19;;;;;;;2.90;0.30;;;12.10;68.80;;;;;;4896071;28;94214;-79
2023/04/25 12:50:48;;;;;;;3.05;0.10;;;11.70;69.80;;;;;;4878283;28;94801;-82
2023/04/25 12:53:18;;;;;;;0.47;0.00;;;11.30;72.30;;;;;;4899173;28;92587;-82
2023/04/25 12:55:45;;;;;;;1.23;0.05;;;11.00;73.30;;;;;;4903257;28;93478;-80
2023/04/25 12:58:12;;;;;;;1.95;0.00;;;10.80;74.70;;;;;;4900125;28;93347;-82
2023/04/25 13:00:37;;;;;;;1.40;0.00;;;10.40;77.20;;;;;;4890759;28;92300;-78
2023/04/25 13:03:04;;;;;;;0.50;0.00;;;10.40;78.30;;;;;;4885934;28;94836;-78
2023/04/25 13:05:30;;;;;;;0.55;0.00;;;10.50;78.40;;;;;;4887697;28;92491;-80
2023/04/25 13:07:56;;;;;;;0.30;0.00;;;10.60;78.60;;;;;;4890204;28;93187;-78
2023/04/25 13:10:22;;;;;;;0.60;0.10;;;10.80;78.80;;;;;;4877979;28;95833;-79
2023/04/25 13:12:47;;;;;;;0.65;0.00;;;11.00;78.80;;;;;;4878905;28;94066;-78
2023/04/25 13:15:15;;;;;;;2.60;0.10;;;11.20;78.20;;;;;;4898825;28;92548;-77
2023/04/25 13:17:41;;;;;;;1.10;0.10;;;11.50;76.30;;;;;;4894816;28;92839;-79
2023/04/25 13:20:09;;;;;;;0.88;0.10;;;12.10;77.50;;;;;;4897340;28;93342;-78
2023/04/25 13:22:38;;;;;;;0.90;0.10;;;12.70;75.40;;;;;;4884602;28;92537;-77
2023/04/25 13:25:06;;;;;;;0.95;0.10;;;13.00;73.70;;;;;;4887164;28;92736;-77
2023/04/25 13:27:33;;;;;;;0.65;0.15;;;13.20;73.10;;;;;;4891433;28;94371;-78
2023/04/25 13:30:00;;;;;;;1.05;0.22;;;13.40;72.20;;;;;;4897731;28;94428;-78
2023/04/25 13:32:26;;;;;;;0.57;0.00;;;13.60;72.20;;;;;;4889014;28;93092;-80
2023/04/25 13:34:53;;;;;;;1.73;0.00;;;13.60;72.00;;;;;;4892440;28;92439;-77
2023/04/25 13:37:19;;;;;;;0.20;0.00;;;13.40;69.90;;;;;;4890992;28;92718;-77
2023/04/25 13:39:45;;;;;;;1.08;0.10;;;13.20;72.00;;;;;;4883631;28;92832;-79
2023/04/25 13:42:11;;;;;;;0.73;0.10;;;13.10;75.30;;;;;;4888343;28;92672;-79
2023/04/25 13:44:36;;;;;;;0.77;0.10;;;13.00;73.50;;;;;;4888125;28;91686;-77
2023/04/25 13:47:02;;;;;;;1.38;0.10;;;12.90;74.10;;;;;;4892346;28;92435;-78
2023/04/25 13:49:28;;;;;;;1.58;0.10;;;12.80;73.70;;;;;;4893755;28;93876;-76
2023/04/25 13:51:54;;;;;;;2.42;0.50;;;12.70;74.10;;;;;;4892758;28;93156;-75
2023/04/25 13:54:19;;;;;;;4.22;0.45;;;12.70;73.80;;;;;;4885187;28;92659;-77
2023/04/25 13:56:45;;;;;;;1.33;0.10;;;12.80;74.80;;;;;;4893154;28;93135;-77
2023/04/25 13:59:11;;;;;;;2.08;0.20;;;12.80;74.00;;;;;;4882954;28;92866;-77
2023/04/25 14:01:37;;;;;;;1.35;0.20;;;13.00;74.20;;;;;;4870034;28;92533;-78
2023/04/25 14:04:06;;;;;;;1.02;0.20;;;13.20;72.60;;;;;;4894382;28;92473;-78
2023/04/25 14:06:32;;;;;;;1.20;0.10;;;13.10;69.30;;;;;;4891509;28;93770;-78
2023/04/25 14:09:00;;;;;;;1.85;0.10;;;13.10;71.20;;;;;;4894519;28;93352;-77
2023/04/25 14:11:26;;;;;;;2.33;0.10;;;13.20;71.40;;;;;;4894929;28;92693;-78
2023/04/25 14:13:52;;;;;;;1.05;0.10;;;13.10;71.20;;;;;;4886505;28;92647;-78
2023/04/25 14:16:18;;;;;;;1.13;0.10;;;13.00;71.80;;;;;;4888875;28;93695;-79
2023/04/25 14:18:43;;;;;;;1.13;0.10;;;12.90;69.80;;;;;;4890918;28;93615;-77
2023/04/25 14:21:09;;;;;;;1.67;0.10;;;12.80;71.90;;;;;;4892748;28;92563;-76
2023/04/25 14:23:35;;;;;;;4.00;0.10;;;12.60;72.30;;;;;;4893007;28;92450;-78
2023/04/25 14:26:01;;;;;;;2.45;0.30;;;12.50;74.40;;;;;;4887528;28;93868;-78
2023/04/25 14:28:27;;;;;;;1.48;0.20;;;12.40;74.50;;;;;;4888805;28;93842;-79
2023/04/25 14:30:52;;;;;;;2.05;0.20;;;12.40;76.00;;;;;;4874242;28;92260;-79
2023/04/25 14:33:18;;;;;;;1.98;0.20;;;12.60;76.10;;;;;;4890598;28;91396;-79
2023/04/25 14:35:44;;;;;;;1.75;0.10;;;13.00;75.90;;;;;;4893112;28;94105;-79
2023/04/25 14:38:09;;;;;;;2.63;0.20;;;13.40;75.90;;;;;;4890822;28;93207;-79
2023/04/25 14:40:36;;;;;;;1.00;0.17;;;14.00;73.40;;;;;;4888292;28;93564;-78
2023/04/25 14:43:02;;;;;;;2.55;0.20;;;14.30;69.70;;;;;;4893733;28;93116;-78
2023/04/25 14:45:28;;;;;;;0.60;0.10;;;14.10;71.30;;;;;;4892047;28;93610;-78
2023/04/25 14:47:53;;;;;;;1.20;0.22;;;14.10;68.90;;;;;;4893791;28;92679;-78
2023/04/25 14:50:19;;;;;;;0.80;0.10;;;13.90;69.70;;;;;;4895350;28;92363;-77
2023/04/25 14:52:45;;;;;;;1.85;0.20;;;13.80;70.90;;;;;;4899055;28;92319;-78
2023/04/25 14:55:11;;;;;;;1.27;0.30;;;13.70;69.80;;;;;;4897317;28;93643;-78
2023/04/25 14:57:39;;;;;;;2.50;0.10;;;13.60;69.90;;;;;;4881138;28;95338;-78
2023/04/25 15:00:09;;;;;;;1.88;0.10;;;13.70;72.50;;;;;;4896597;28;92400;-78
2023/04/25 15:02:35;;;;;;;1.35;0.20;;;13.80;71.80;;;;;;4897737;28;92126;-78
2023/04/25 15:05:01;;;;;;;0.73;0.20;;;13.90;70.40;;;;;;4897633;28;93971;-78
2023/04/25 15:07:26;;;;;;;0.80;0.15;;;13.90;69.80;;;;;;4890364;28;94156;-77
2023/04/25 15:09:53;;;;;;;0.40;0.10;;;13.90;69.80;;;;;;4886146;28;92558;-78
2023/04/25 15:12:19;;;;;;;1.00;0.17;;;14.00;70.70;;;;;;4894291;28;92946;-78
2023/04/25 15:14:45;;;;;;;1.38;0.10;;;14.00;68.50;;;;;;4889671;28;94032;-78
2023/04/25 15:17:13;;;;;;;0.77;0.20;;;14.00;69.40;;;;;;4897236;28;93198;-77
2023/04/25 15:19:39;;;;;;;1.13;0.10;;;14.20;71.30;;;;;;4897601;28;92440;-79
2023/04/25 15:22:06;;;;;;;2.60;0.10;;;14.50;67.60;;;;;;4899491;28;91738;-76
2023/04/25 15:24:32;;;;;;;0.90;0.20;;;14.70;69.20;;;;;;4897394;28;93489;-82
2023/04/25 15:26:58;;;;;;;0.60;0.10;;;14.90;69.40;;;;;;4897499;28;92601;-79
2023/04/25 15:29:24;;;;;;;1.05;0.10;;;15.20;68.70;;;;;;4897866;28;93421;-78
2023/04/25 15:31:50;;;;;;;0.50;0.10;;;15.30;66.00;;;;;;4881569;28;92845;-79
2023/04/25 15:34:16;;;;;;;1.58;0.10;;;15.40;63.50;;;;;;4897229;28;93371;-78
2023/04/25 15:36:41;;;;;;;1.02;0.10;;;15.30;66.20;;;;;;4897614;28;93058;-77
2023/04/25 15:39:07;;;;;;;1.88;0.10;;;15.20;65.70;;;;;;4898092;28;92978;-78
2023/04/25 15:41:33;;;;;;;1.15;0.10;;;14.90;65.50;;;;;;4897538;28;92494;-79
2023/04/25 15:44:00;;;;;;;4.13;0.47;;;14.70;66.30;;;;;;4896693;28;93646;-77
2023/04/25 15:46:26;;;;;;;1.00;0.10;;;14.60;66.90;;;;;;4898225;28;92758;-78
2023/04/25 15:48:52;;;;;;;0.80;0.17;;;14.40;66.10;;;;;;4898294;28;92398;-77